createdAt,value
2019-04-04T00:01:48.236Z,98651.20
2019-04-04T00:04:53.245Z,98642.55
2019-04-04T00:07:58.122Z,98638.75
2019-04-04T00:11:02.085Z,98644.87
2019-04-04T00:14:05.602Z,98642.06
2019-04-04T00:17:10.123Z,98638.23
2019-04-04T00:20:13.678Z,98632.92
2019-04-04T00:23:18.138Z,98630.27
2019-04-04T00:26:21.646Z,98625.62
2019-04-04T00:29:26.272Z,98626.59
2019-04-04T00:32:29.880Z,98626.59
2019-04-04T00:35:33.386Z,98621.64
2019-04-04T00:38:37.984Z,98622.28
2019-04-04T00:41:42.980Z,98622.28
2019-04-04T00:44:47.560Z,98625.27
2019-04-04T00:47:51.063Z,98623.60
2019-04-04T00:50:55.611Z,98622.55
2019-04-04T00:54:00.137Z,98621.55
2019-04-04T00:57:03.623Z,98616.24
2019-04-04T01:00:07.288Z,98612.26
2019-04-04T01:03:10.827Z,98607.28
2019-04-04T01:06:14.332Z,98604.81
2019-04-04T01:09:17.830Z,98603.16
2019-04-04T01:12:22.287Z,98598.00
2019-04-04T01:15:25.844Z,98602.94
2019-04-04T01:18:29.409Z,98596.16
2019-04-04T01:21:32.866Z,98590.67
2019-04-04T01:24:37.385Z,98593.32
2019-04-04T01:27:40.919Z,98595.98
2019-04-04T01:30:44.407Z,98600.95
2019-04-04T01:33:50.902Z,98600.95
2019-04-04T01:36:56.077Z,98595.28
2019-04-04T01:40:02.243Z,98587.32
2019-04-04T01:43:08.839Z,98584.34
2019-04-04T01:46:11.001Z,98575.37
2019-04-04T01:49:14.503Z,98580.84
2019-04-04T01:52:18.019Z,98573.39
2019-04-04T01:55:21.458Z,98566.75
2019-04-04T01:58:25.220Z,98563.77
2019-04-04T02:01:28.819Z,98559.43
2019-04-04T02:04:32.315Z,98560.75
2019-04-04T02:07:35.814Z,98555.45
2019-04-04T02:10:39.341Z,98562.59
2019-04-04T02:13:42.844Z,98560.75
2019-04-04T02:16:50.995Z,98560.91
2019-04-04T02:19:51.674Z,98567.05
2019-04-04T02:22:55.155Z,98566.21
2019-04-04T02:25:59.688Z,98559.43
2019-04-04T02:29:03.185Z,98557.59
2019-04-04T02:32:10.343Z,98562.05
2019-04-04T02:35:13.880Z,98560.72
2019-04-04T02:38:17.371Z,98557.38
2019-04-04T02:41:21.904Z,98563.05
2019-04-04T02:44:25.351Z,98563.05
2019-04-04T02:47:28.906Z,98561.20
2019-04-04T02:50:35.538Z,98564.52
2019-04-04T02:53:37.750Z,98563.05
2019-04-04T02:56:42.541Z,98551.41
2019-04-04T02:59:46.169Z,98553.06
2019-04-04T03:02:49.676Z,98557.89
2019-04-04T03:05:53.161Z,98554.39
2019-04-04T03:08:56.690Z,98555.39
2019-04-04T03:12:00.184Z,98547.09
2019-04-04T03:15:06.317Z,98547.09
2019-04-04T03:18:10.295Z,98542.61
2019-04-04T03:21:13.775Z,98531.33
2019-04-04T03:24:18.293Z,98532.50
2019-04-04T03:27:25.461Z,98544.08
2019-04-04T03:30:28.155Z,98545.08
2019-04-04T03:33:32.684Z,98544.75
2019-04-04T03:36:36.382Z,98544.59
2019-04-04T03:39:39.863Z,98530.16
2019-04-04T03:42:44.305Z,98532.81
2019-04-04T03:45:48.520Z,98528.47
2019-04-04T03:48:52.016Z,98532.44
2019-04-04T03:51:55.545Z,98525.48
2019-04-04T03:55:00.072Z,98533.44
2019-04-04T03:58:03.554Z,98539.08
2019-04-04T04:01:11.959Z,98533.11
2019-04-04T04:04:13.452Z,98537.09
2019-04-04T04:07:16.922Z,98537.09
2019-04-04T04:10:20.530Z,98554.33
2019-04-04T04:13:24.143Z,98553.48
2019-04-04T04:16:27.638Z,98565.93
2019-04-04T04:19:31.555Z,98575.22
2019-04-04T04:22:35.242Z,98579.67
2019-04-04T04:25:43.249Z,98585.46
2019-04-04T04:28:46.781Z,98584.50
2019-04-04T04:31:50.241Z,98584.10
2019-04-04T04:34:53.679Z,98588.11
2019-04-04T04:37:57.253Z,98586.79
2019-04-04T04:41:00.859Z,98581.30
2019-04-04T04:44:05.611Z,98580.30
2019-04-04T04:47:09.648Z,98568.37
2019-04-04T04:50:13.168Z,98568.88
2019-04-04T04:53:18.891Z,98571.83
2019-04-04T04:56:21.939Z,98578.65
2019-04-04T04:59:25.464Z,98576.48
2019-04-04T05:02:28.945Z,98580.97
2019-04-04T05:05:32.450Z,98572.65
2019-04-04T05:08:35.961Z,98566.53
2019-04-04T05:11:39.444Z,98573.16
2019-04-04T05:14:42.962Z,98568.48
2019-04-04T05:17:46.460Z,98567.01
2019-04-04T05:20:51.017Z,98559.20
2019-04-04T05:23:55.502Z,98557.73
2019-04-04T05:27:03.997Z,98555.22
2019-04-04T05:30:08.745Z,98561.37
2019-04-04T05:33:12.347Z,98560.89
2019-04-04T05:39:18.928Z,98555.22
2019-04-04T05:42:22.470Z,98560.53
2019-04-04T05:45:25.897Z,98555.22
2019-04-04T05:48:29.731Z,98559.86
2019-04-04T05:51:36.037Z,98555.22
2019-04-04T05:54:39.191Z,98554.56
2019-04-04T05:57:43.322Z,98548.41
2019-04-04T06:00:47.943Z,98554.05
2019-04-04T06:03:52.490Z,98556.07
2019-04-04T06:06:55.989Z,98546.61
2019-04-04T06:09:59.501Z,98547.56
2019-04-04T06:13:02.973Z,98555.38
2019-04-04T06:16:06.485Z,98554.56
2019-04-04T06:19:09.989Z,98547.56
2019-04-04T06:22:13.487Z,98536.95
2019-04-04T06:25:17.031Z,98530.33
2019-04-04T06:28:20.495Z,98534.30
2019-04-04T06:31:26.080Z,98523.22
2019-04-04T06:34:29.332Z,98517.06
2019-04-04T06:37:34.273Z,98513.09
2019-04-04T06:40:38.258Z,98509.11
2019-04-04T06:43:42.088Z,98499.50
2019-04-04T06:46:45.501Z,98504.17
2019-04-04T06:49:49.206Z,98506.45
2019-04-04T06:52:52.810Z,98507.78
2019-04-04T06:55:58.166Z,98510.44
2019-04-04T06:59:02.690Z,98497.69
2019-04-04T07:02:06.264Z,98491.87
2019-04-04T07:05:10.739Z,98482.59
2019-04-04T07:08:15.925Z,98477.28
2019-04-04T07:11:21.598Z,98471.66
2019-04-04T07:14:24.899Z,98477.28
2019-04-04T07:17:29.407Z,98468.16
2019-04-04T07:20:32.912Z,98456.22
2019-04-04T07:23:36.408Z,98459.72
2019-04-04T07:26:39.910Z,98453.42
2019-04-04T07:29:43.414Z,98450.44
2019-04-04T07:32:46.898Z,98446.45
2019-04-04T07:35:50.427Z,98444.13
2019-04-04T07:38:54.038Z,98447.78
2019-04-04T07:41:57.613Z,98447.30
2019-04-04T07:45:01.141Z,98451.61
2019-04-04T07:48:05.653Z,98456.79
2019-04-04T07:51:09.180Z,98454.47
2019-04-04T07:54:12.642Z,98460.31
2019-04-04T07:57:17.317Z,98456.52
2019-04-04T08:00:21.367Z,98453.37
2019-04-04T08:03:25.095Z,98450.88
2019-04-04T08:06:28.696Z,98446.23
2019-04-04T08:09:32.218Z,98443.42
2019-04-04T08:12:35.700Z,98442.77
2019-04-04T08:15:45.164Z,98432.03
2019-04-04T08:18:48.748Z,98437.99
2019-04-04T08:21:52.359Z,98441.97
2019-04-04T08:24:55.879Z,98441.34
2019-04-04T08:28:00.356Z,98431.20
2019-04-04T08:31:03.896Z,98441.36
2019-04-04T08:34:07.393Z,98435.90
2019-04-04T08:37:10.883Z,98437.38
2019-04-04T08:40:14.494Z,98438.70
2019-04-04T08:43:18.086Z,98435.03
2019-04-04T08:46:21.610Z,98430.42
2019-04-04T08:49:25.047Z,98435.72
2019-04-04T08:52:28.648Z,98432.74
2019-04-04T08:55:32.094Z,98429.94
2019-04-04T08:58:36.603Z,98426.11
2019-04-04T09:01:40.116Z,98434.07
2019-04-04T09:04:44.839Z,98421.82
2019-04-04T09:07:48.329Z,98422.48
2019-04-04T09:10:51.895Z,98422.16
2019-04-04T09:13:55.446Z,98426.13
2019-04-04T09:16:59.213Z,98420.67
2019-04-04T09:20:02.963Z,98415.52
2019-04-04T09:23:06.468Z,98407.41
2019-04-04T09:26:09.962Z,98403.59
2019-04-04T09:29:14.483Z,98409.59
2019-04-04T09:32:18.037Z,98405.66
2019-04-04T09:35:21.501Z,98405.99
2019-04-04T09:38:25.009Z,98409.34
2019-04-04T09:41:28.516Z,98406.70
2019-04-04T09:44:31.996Z,98412.34
2019-04-04T09:47:35.490Z,98413.35
2019-04-04T09:50:39.065Z,98405.55
2019-04-04T09:53:53.017Z,98393.60
2019-04-04T09:56:47.857Z,98399.77
2019-04-04T09:59:51.372Z,98397.12
2019-04-04T10:02:54.850Z,98393.79
2019-04-04T10:05:58.387Z,98393.84
2019-04-04T10:09:15.007Z,98404.78
2019-04-04T10:12:09.854Z,98395.81
2019-04-04T10:15:13.389Z,98394.49
2019-04-04T10:18:20.162Z,98384.56
2019-04-04T10:21:24.666Z,98386.21
2019-04-04T10:24:28.163Z,98391.85
2019-04-04T10:27:31.781Z,98384.57
2019-04-04T10:30:35.369Z,98388.72
2019-04-04T10:33:41.999Z,98374.29
2019-04-04T10:36:44.229Z,98373.65
2019-04-04T10:39:47.883Z,98373.97
2019-04-04T10:42:56.756Z,98373.33
2019-04-04T10:46:00.321Z,98373.33
2019-04-04T10:49:04.188Z,98377.95
2019-04-04T10:52:07.945Z,98376.98
2019-04-04T10:55:15.984Z,98368.02
2019-04-04T10:58:19.344Z,98374.33
2019-04-04T11:01:24.404Z,98372.48
2019-04-04T11:04:30.158Z,98371.33
2019-04-04T11:07:33.928Z,98367.70
2019-04-04T11:10:38.588Z,98365.53
2019-04-04T11:13:42.211Z,98375.35
2019-04-04T11:16:47.777Z,98370.05
2019-04-04T11:19:51.227Z,98365.75
2019-04-04T11:22:54.866Z,98367.73
2019-04-04T11:25:59.288Z,98359.44
2019-04-04T11:29:03.028Z,98352.80
2019-04-04T11:32:11.521Z,98364.44
2019-04-04T11:35:15.202Z,98357.47
2019-04-04T11:38:18.874Z,98361.30
2019-04-04T11:41:22.321Z,98350.16
2019-04-04T11:44:25.917Z,98351.16
2019-04-04T11:47:29.550Z,98347.89
2019-04-04T11:50:33.028Z,98346.89
2019-04-04T11:53:36.551Z,98347.41
2019-04-04T11:56:40.025Z,98335.30
2019-04-04T11:59:43.525Z,98335.62
2019-04-04T12:02:48.119Z,98338.77
2019-04-04T12:05:51.656Z,98330.30
2019-04-04T12:08:56.276Z,98327.81
2019-04-04T12:11:59.785Z,98337.27
2019-04-04T12:15:03.502Z,98338.95
2019-04-04T12:18:06.982Z,98348.26
2019-04-04T12:21:11.511Z,98333.97
2019-04-04T12:24:16.030Z,98338.95
2019-04-04T12:27:19.546Z,98344.11
2019-04-04T12:30:23.060Z,98333.64
2019-04-04T12:33:28.389Z,98334.32
2019-04-04T12:36:31.870Z,98338.30
2019-04-04T12:39:35.412Z,98331.33
2019-04-04T12:42:38.889Z,98326.99
2019-04-04T12:45:43.433Z,98330.66
2019-04-04T12:48:46.949Z,98325.17
2019-04-04T12:51:50.549Z,98330.33
2019-04-04T12:54:54.230Z,98328.34
2019-04-04T12:57:57.816Z,98327.50
2019-04-04T13:01:01.311Z,98333.17
2019-04-04T13:04:04.857Z,98339.13
2019-04-04T13:07:08.379Z,98332.65
2019-04-04T13:10:12.303Z,98336.31
2019-04-04T13:13:16.970Z,98332.31
2019-04-04T13:16:20.473Z,98331.34
2019-04-04T13:19:24.045Z,98339.97
2019-04-04T13:22:27.685Z,98337.14
2019-04-04T13:25:31.284Z,98331.34
2019-04-04T13:28:34.888Z,98334.48
2019-04-04T13:31:38.474Z,98338.63
2019-04-04T13:34:43.050Z,98334.64
2019-04-04T13:37:46.742Z,98332.34
2019-04-04T13:40:51.655Z,98320.69
2019-04-04T13:43:55.059Z,98320.20
2019-04-04T13:46:58.740Z,98310.70
2019-04-04T13:50:02.277Z,98320.36
2019-04-04T13:53:05.834Z,98326.66
2019-04-04T13:56:09.532Z,98323.83
2019-04-04T13:59:13.287Z,98321.72
2019-04-04T14:02:16.881Z,98313.06
2019-04-04T14:05:21.515Z,98310.75
2019-04-04T14:08:25.253Z,98312.08
2019-04-04T14:11:28.799Z,98307.75
2019-04-04T14:14:32.440Z,98301.58
2019-04-04T14:17:36.162Z,98295.77
2019-04-04T14:20:39.830Z,98301.42
2019-04-04T14:23:45.269Z,98294.28
2019-04-04T14:26:48.880Z,98287.10
2019-04-04T14:29:55.212Z,98293.59
2019-04-04T14:32:57.951Z,98295.44
2019-04-04T14:36:01.546Z,98293.94
2019-04-04T14:39:06.919Z,98286.45
2019-04-04T14:42:10.424Z,98284.94
2019-04-04T14:45:13.880Z,98272.47
2019-04-04T14:48:17.402Z,98280.12
2019-04-04T14:51:20.821Z,98281.77
2019-04-04T14:54:24.376Z,98282.41
2019-04-04T14:57:27.909Z,98274.77
2019-04-04T15:00:31.380Z,98274.44
2019-04-04T15:03:35.932Z,98265.45
2019-04-04T15:06:39.434Z,98263.46
2019-04-04T15:09:42.936Z,98264.61
2019-04-04T15:12:47.018Z,98267.45
2019-04-04T15:16:14.734Z,98275.23
2019-04-04T15:19:18.200Z,98274.77
2019-04-04T15:22:21.697Z,98279.41
2019-04-04T15:25:25.197Z,98271.78
2019-04-04T15:28:28.703Z,98285.73
2019-04-04T15:31:32.202Z,98292.38
2019-04-04T15:34:35.728Z,98293.86
2019-04-04T15:37:39.202Z,98286.37
2019-04-04T15:40:42.711Z,98290.03
2019-04-04T15:43:46.225Z,98290.36
2019-04-04T15:46:49.730Z,98290.36
2019-04-04T15:49:54.270Z,98289.34
2019-04-04T15:52:57.785Z,98291.84
2019-04-04T15:56:01.344Z,98297.68
2019-04-04T15:59:07.560Z,98294.01
2019-04-04T16:02:11.316Z,98301.50
2019-04-04T16:05:14.813Z,98297.01
2019-04-04T16:08:19.403Z,98304.35
2019-04-04T16:11:25.633Z,98306.02
2019-04-04T16:14:29.203Z,98308.34
2019-04-04T16:17:33.735Z,98311.98
2019-04-04T16:20:37.260Z,98317.83
2019-04-04T16:23:41.029Z,98316.98
2019-04-04T16:26:44.758Z,98318.31
2019-04-04T16:29:48.352Z,98324.65
2019-04-04T16:32:52.881Z,98328.66
2019-04-04T16:35:56.441Z,98325.99
2019-04-04T16:38:59.896Z,98326.65
2019-04-04T16:42:03.439Z,98336.12
2019-04-04T16:45:07.667Z,98342.46
2019-04-04T16:48:13.774Z,98345.93
2019-04-04T16:51:16.648Z,98338.28
2019-04-04T16:54:20.250Z,98343.28
2019-04-04T16:57:23.766Z,98351.27
2019-04-04T17:00:27.379Z,98352.28
2019-04-04T17:03:30.958Z,98353.95
2019-04-04T17:06:35.511Z,98358.59
2019-04-04T17:09:39.006Z,98362.26
2019-04-04T17:12:42.594Z,98355.29
2019-04-04T17:15:46.233Z,98362.91
2019-04-04T17:18:49.684Z,98362.59
2019-04-04T17:21:53.179Z,98370.25
2019-04-04T17:24:56.701Z,98369.57
2019-04-04T17:28:01.271Z,98370.58
2019-04-04T17:31:07.117Z,98369.41
2019-04-04T17:34:10.078Z,98375.22
2019-04-04T17:37:14.145Z,98383.88
2019-04-04T17:40:18.027Z,98382.55
2019-04-04T17:43:22.058Z,98388.03
2019-04-04T17:46:25.513Z,98399.84
2019-04-04T17:49:29.495Z,98399.84
2019-04-04T17:52:33.125Z,98396.83
2019-04-04T17:55:36.879Z,98400.14
2019-04-04T17:58:40.323Z,98400.14
2019-04-04T18:01:43.866Z,98403.97
2019-04-04T18:04:48.813Z,98407.96
2019-04-04T18:07:52.467Z,98415.58
2019-04-04T18:10:55.971Z,98414.77
2019-04-04T18:13:59.483Z,98428.72
2019-04-04T18:17:03.073Z,98434.69
2019-04-04T18:20:07.237Z,98440.00
2019-04-04T18:23:10.906Z,98438.67
2019-04-04T18:26:14.520Z,98439.36
2019-04-04T18:29:18.021Z,98447.33
2019-04-04T18:32:22.522Z,98447.33
2019-04-04T18:35:26.661Z,98451.31
2019-04-04T18:38:30.349Z,98458.45
2019-04-04T18:41:33.852Z,98464.77
2019-04-04T18:44:37.387Z,98466.59
2019-04-04T18:47:40.909Z,98477.22
2019-04-04T18:50:44.420Z,98479.04
2019-04-04T18:53:47.881Z,98473.40
2019-04-04T18:56:51.355Z,98477.55
2019-04-04T18:59:54.858Z,98472.23
2019-04-04T19:02:58.377Z,98473.72
2019-04-04T19:06:01.855Z,98468.92
2019-04-04T19:09:14.693Z,98472.23
2019-04-04T19:12:14.391Z,98474.08
2019-04-04T19:15:18.913Z,98473.92
2019-04-04T19:18:22.518Z,98475.58
2019-04-04T19:21:26.125Z,98475.90
2019-04-04T19:24:29.659Z,98477.59
2019-04-04T19:27:33.316Z,98487.54
2019-04-04T19:30:37.865Z,98487.22
2019-04-04T19:33:41.346Z,98490.88
2019-04-04T19:36:44.866Z,98497.17
2019-04-04T19:39:48.352Z,98507.80
2019-04-04T19:42:52.894Z,98510.47
2019-04-04T19:45:56.397Z,98508.82
2019-04-04T19:48:59.888Z,98517.80
2019-04-04T19:52:03.503Z,98510.31
2019-04-04T19:55:07.674Z,98512.48
2019-04-04T19:58:11.207Z,98512.48
2019-04-04T20:01:14.707Z,98515.47
2019-04-04T20:04:18.222Z,98516.80
2019-04-04T20:07:21.785Z,98525.13
2019-04-04T20:10:25.412Z,98523.45
2019-04-04T20:13:31.096Z,98537.73
2019-04-04T20:16:34.299Z,98529.59
2019-04-04T20:19:37.782Z,98532.73
2019-04-04T20:22:41.376Z,98535.72
2019-04-04T20:25:44.969Z,98542.36
2019-04-04T20:28:50.667Z,98548.84
2019-04-04T20:31:54.246Z,98550.33
2019-04-04T20:34:57.736Z,98547.67
2019-04-04T20:38:02.275Z,98555.48
2019-04-04T20:41:05.766Z,98561.97
2019-04-04T20:44:10.297Z,98557.94
2019-04-04T20:47:13.795Z,98563.26
2019-04-04T20:50:17.287Z,98555.63
2019-04-04T20:53:22.224Z,98561.11
2019-04-04T20:56:26.041Z,98554.78
2019-04-04T20:59:29.624Z,98561.27
2019-04-04T21:02:33.195Z,98569.39
2019-04-04T21:05:36.846Z,98573.02
2019-04-04T21:08:40.330Z,98576.52
2019-04-04T21:11:43.851Z,98575.87
2019-04-04T21:14:48.361Z,98572.20
2019-04-04T21:17:51.856Z,98581.50
2019-04-04T21:20:55.374Z,98582.47
2019-04-04T21:23:59.880Z,98582.30
2019-04-04T21:27:03.387Z,98582.81
2019-04-04T21:30:06.934Z,98584.78
2019-04-04T21:33:10.406Z,98587.77
2019-04-04T21:36:13.973Z,98587.77
2019-04-04T21:39:17.595Z,98587.11
2019-04-04T21:42:22.125Z,98592.91
2019-04-04T21:45:25.617Z,98594.73
2019-04-04T21:48:29.241Z,98598.07
2019-04-04T21:51:32.858Z,98601.53
2019-04-04T21:54:36.291Z,98606.67
2019-04-04T21:57:39.837Z,98607.19
2019-04-04T22:00:44.363Z,98616.13
2019-04-04T22:03:48.882Z,98615.80
2019-04-04T22:06:52.388Z,98621.80
2019-04-04T22:09:55.880Z,98622.92
2019-04-04T22:12:59.389Z,98626.25
2019-04-04T22:16:03.911Z,98628.91
2019-04-04T22:19:09.458Z,98623.23
2019-04-04T22:22:12.952Z,98622.42
2019-04-04T22:25:16.450Z,98623.08
2019-04-04T22:28:19.880Z,98628.39
2019-04-04T22:31:23.462Z,98629.87
2019-04-04T22:34:26.964Z,98627.20
2019-04-04T22:37:30.459Z,98631.55
2019-04-04T22:40:34.989Z,98634.36
2019-04-04T22:43:38.491Z,98636.16
2019-04-04T22:46:42.006Z,98635.16
2019-04-04T22:49:45.486Z,98636.16
2019-04-04T22:52:49.004Z,98632.00
2019-04-04T22:55:52.503Z,98643.81
2019-04-04T22:58:57.037Z,98647.10
2019-04-04T23:02:00.536Z,98650.60
2019-04-04T23:05:04.269Z,98649.76
2019-04-04T23:08:07.754Z,98649.55
2019-04-04T23:11:11.228Z,98649.06
2019-04-04T23:14:15.752Z,98651.03
2019-04-04T23:17:19.258Z,98652.84
2019-04-04T23:20:22.750Z,98656.02
2019-04-04T23:23:26.270Z,98665.97
2019-04-04T23:26:29.759Z,98680.95
2019-04-04T23:29:33.264Z,98685.88
2019-04-04T23:32:36.776Z,98697.19
2019-04-04T23:35:41.266Z,98700.81
2019-04-04T23:38:44.789Z,98711.74
2019-04-04T23:41:48.312Z,98724.88
2019-04-04T23:45:00.690Z,98729.38
2019-04-04T23:47:57.132Z,98730.70
2019-04-04T23:51:00.737Z,98727.69
2019-04-04T23:54:04.240Z,98733.99
2019-04-04T23:57:07.833Z,98735.98
